Time;durP1;ratioP1;P1;durP2;ratioP2;P2;SDS_P1;SDS_P2;PMS_P1;PMS_P2;Temp;Humidity;BMP_temperature;BMP_pressure;BME280_temperature;BME280_humidity;BME280_pressure;Samples;Min_cycle;Max_cycle;Signal;HPM_P1;HPM_P2
2023/11/19 00:00:11;;;;;;;5.35;4.85;;;7.30;99.90;;;;;;5030166;28;20037;-71
2023/11/19 00:02:39;;;;;;;5.65;5.28;;;7.30;99.90;;;;;;5028037;28;20120;-72
2023/11/19 00:05:11;;;;;;;6.85;6.25;;;7.40;99.90;;;;;;5024887;28;20040;-72
2023/11/19 00:07:41;;;;;;;6.25;5.70;;;7.40;99.90;;;;;;5036499;28;20048;-71
2023/11/19 00:10:13;;;;;;;6.82;6.10;;;7.40;99.90;;;;;;5026108;28;20049;-72
2023/11/19 00:12:44;;;;;;;5.95;5.55;;;7.40;99.90;;;;;;5027293;28;20067;-72
2023/11/19 00:15:11;;;;;;;6.00;5.40;;;7.40;99.90;;;;;;5023805;28;20072;-73
2023/11/19 00:17:45;;;;;;;6.68;6.10;;;7.50;99.90;;;;;;5033237;28;20048;-72
2023/11/19 00:20:15;;;;;;;6.70;6.18;;;7.50;99.90;;;;;;5027364;28;20130;-72
2023/11/19 00:22:43;;;;;;;7.20;6.50;;;7.50;99.90;;;;;;5023759;28;20154;-72
2023/11/19 00:25:13;;;;;;;6.47;5.93;;;7.50;99.90;;;;;;5023594;28;20435;-72
2023/11/19 00:27:39;;;;;;;7.32;6.15;;;7.50;99.90;;;;;;5030197;28;20124;-72
2023/11/19 00:30:08;;;;;;;6.22;5.22;;;7.50;99.90;;;;;;5031171;28;20096;-72
2023/11/19 00:32:36;;;;;;;5.90;5.45;;;7.60;99.90;;;;;;5027573;28;20033;-72
2023/11/19 00:35:03;;;;;;;6.60;6.05;;;7.60;99.90;;;;;;5027642;28;20056;-73
2023/11/19 00:37:29;;;;;;;6.93;6.28;;;7.60;99.90;;;;;;5026626;28;20057;-72
2023/11/19 00:39:56;;;;;;;7.00;6.30;;;7.70;99.90;;;;;;5029154;28;20062;-72
2023/11/19 00:42:24;;;;;;;8.68;6.50;;;7.70;99.90;;;;;;5026708;28;20120;-72
2023/11/19 00:44:51;;;;;;;6.63;5.93;;;7.80;99.90;;;;;;5032824;28;20056;-73
2023/11/19 00:47:21;;;;;;;6.93;6.32;;;7.80;99.90;;;;;;5023524;28;21240;-72
2023/11/19 00:49:51;;;;;;;7.47;6.57;;;7.80;99.90;;;;;;5034495;28;20060;-72
2023/11/19 00:52:18;;;;;;;7.32;6.63;;;7.80;99.90;;;;;;5027268;28;20044;-72
2023/11/19 00:54:45;;;;;;;6.88;6.38;;;7.90;99.90;;;;;;5032183;28;20084;-72
2023/11/19 00:57:12;;;;;;;8.30;7.38;;;7.90;99.90;;;;;;5030588;28;20051;-73
2023/11/19 00:59:44;;;;;;;7.35;6.65;;;7.90;99.90;;;;;;5029688;28;20045;-72
2023/11/19 01:02:11;;;;;;;7.45;6.57;;;7.90;99.90;;;;;;5027654;28;20064;-72
2023/11/19 01:04:38;;;;;;;7.18;6.47;;;7.90;99.90;;;;;;5032044;28;20048;-73
2023/11/19 01:07:12;;;;;;;10.05;6.88;;;8.00;99.90;;;;;;5026341;28;20681;-72
2023/11/19 01:09:42;;;;;;;6.97;6.22;;;8.00;99.90;;;;;;5015129;28;20502;-73
2023/11/19 01:12:10;;;;;;;7.38;6.68;;;8.00;99.90;;;;;;5029065;28;20053;-73
2023/11/19 01:14:37;;;;;;;8.05;7.25;;;8.00;99.90;;;;;;5029555;28;20044;-72
2023/11/19 01:17:04;;;;;;;6.97;6.28;;;8.00;99.90;;;;;;5010315;28;20049;-72
2023/11/19 01:19:31;;;;;;;8.93;6.40;;;8.10;99.90;;;;;;5012574;28;20055;-72
2023/11/19 01:21:58;;;;;;;12.32;8.45;;;8.10;99.90;;;;;;5011004;28;20045;-72
2023/11/19 01:24:28;;;;;;;6.65;6.05;;;8.20;99.90;;;;;;5028060;28;20423;-72
2023/11/19 01:26:55;;;;;;;5.53;5.03;;;8.20;99.90;;;;;;5026764;28;20050;-73
2023/11/19 01:29:22;;;;;;;5.90;5.40;;;8.20;99.90;;;;;;5021374;28;20053;-72
2023/11/19 01:31:51;;;;;;;6.35;5.75;;;8.30;99.90;;;;;;5028301;28;20044;-73
2023/11/19 01:34:18;;;;;;;5.55;4.78;;;8.40;99.90;;;;;;5024734;28;20033;-73
2023/11/19 01:36:48;;;;;;;7.03;5.22;;;8.50;99.90;;;;;;5009787;28;20044;-72
2023/11/19 01:39:19;;;;;;;5.68;5.18;;;8.50;99.90;;;;;;5029396;28;20049;-73
2023/11/19 01:41:47;;;;;;;5.65;5.15;;;8.70;99.90;;;;;;5026402;28;20107;-72
2023/11/19 01:44:13;;;;;;;6.28;5.68;;;8.80;99.90;;;;;;5029902;28;20103;-72
2023/11/19 01:46:43;;;;;;;5.93;5.53;;;8.90;99.90;;;;;;5029415;28;20140;-73
2023/11/19 01:49:11;;;;;;;5.38;4.88;;;9.00;99.90;;;;;;5011743;28;20137;-73
2023/11/19 01:51:40;;;;;;;5.20;4.90;;;9.10;99.90;;;;;;5012925;28;20044;-72
2023/11/19 01:54:07;;;;;;;4.97;4.47;;;9.10;99.90;;;;;;5009847;28;20044;-72
2023/11/19 01:56:36;;;;;;;5.07;4.68;;;9.10;99.90;;;;;;5027053;28;20049;-72
2023/11/19 01:59:04;;;;;;;5.43;4.93;;;9.20;99.90;;;;;;5020703;28;20480;-73
2023/11/19 02:01:32;;;;;;;5.22;4.72;;;9.30;99.90;;;;;;5029908;28;20040;-73
2023/11/19 02:03:59;;;;;;;4.57;4.13;;;9.40;99.90;;;;;;5029778;28;20050;-73
2023/11/19 02:06:28;;;;;;;6.35;4.20;;;9.70;99.90;;;;;;5027219;28;20661;-72
2023/11/19 02:08:55;;;;;;;4.00;3.70;;;9.90;99.90;;;;;;5027875;28;20052;-73
2023/11/19 02:11:22;;;;;;;4.13;3.83;;;10.00;99.90;;;;;;5028060;28;20052;-72
2023/11/19 02:13:49;;;;;;;3.65;3.35;;;10.10;99.90;;;;;;5028708;28;20083;-72
2023/11/19 02:16:15;;;;;;;4.40;4.00;;;10.10;99.90;;;;;;5025988;28;20041;-73
2023/11/19 02:18:42;;;;;;;4.03;3.22;;;10.20;99.90;;;;;;5015733;28;20699;-73
2023/11/19 02:21:10;;;;;;;4.85;3.53;;;10.20;99.90;;;;;;5027826;28;20407;-72
2023/11/19 02:23:37;;;;;;;3.95;3.40;;;10.30;99.90;;;;;;5014790;28;20080;-72
2023/11/19 02:26:14;;;;;;;4.13;3.60;;;10.30;99.90;;;;;;5026867;28;20131;-72
2023/11/19 02:28:42;;;;;;;3.53;3.22;;;10.30;99.90;;;;;;5020333;28;20954;-73
2023/11/19 02:31:11;;;;;;;3.50;3.20;;;10.40;99.90;;;;;;5024511;28;20788;-72
2023/11/19 02:33:38;;;;;;;3.55;3.22;;;10.40;99.90;;;;;;5018069;28;20049;-73
2023/11/19 02:36:06;;;;;;;6.75;4.60;;;10.40;99.90;;;;;;5022914;28;20121;-73
2023/11/19 02:38:34;;;;;;;4.40;3.90;;;10.40;99.90;;;;;;5018639;28;20061;-73
2023/11/19 02:41:05;;;;;;;5.00;4.18;;;10.50;99.90;;;;;;5017830;28;20045;-73
2023/11/19 02:43:33;;;;;;;7.60;4.75;;;10.50;99.90;;;;;;5027349;28;20049;-73
2023/11/19 02:46:02;;;;;;;5.53;3.97;;;10.50;99.90;;;;;;5022424;28;20052;-71
2023/11/19 02:48:43;;;;;;;6.95;5.15;;;10.50;99.90;;;;;;5021840;28;20057;-73
2023/11/19 02:51:10;;;;;;;5.60;4.75;;;10.60;99.90;;;;;;5016736;28;20136;-73
2023/11/19 02:53:39;;;;;;;4.93;4.28;;;10.60;99.90;;;;;;5021954;28;20488;-72
2023/11/19 02:56:15;;;;;;;6.50;5.07;;;10.60;99.90;;;;;;5011580;28;20116;-72
2023/11/19 02:58:44;;;;;;;5.47;4.97;;;10.70;99.90;;;;;;5026664;28;20615;-73
2023/11/19 03:01:23;;;;;;;7.53;4.95;;;10.70;99.90;;;;;;5046355;28;20041;-72
2023/11/19 03:03:57;;;;;;;5.35;4.85;;;10.80;99.90;;;;;;5024897;28;20137;-72
2023/11/19 03:06:24;;;;;;;6.30;4.40;;;10.80;99.90;;;;;;5040069;28;20048;-73
2023/11/19 03:08:51;;;;;;;5.57;4.00;;;10.80;99.90;;;;;;5031200;28;20065;-72
2023/11/19 03:11:18;;;;;;;4.13;3.67;;;10.80;99.90;;;;;;5023071;28;20664;-73
2023/11/19 03:13:46;;;;;;;3.80;3.50;;;10.90;99.90;;;;;;5034509;28;20714;-73
2023/11/19 03:16:13;;;;;;;4.22;3.83;;;10.90;99.90;;;;;;5021760;28;20132;-73
2023/11/19 03:18:40;;;;;;;7.85;5.00;;;10.90;99.90;;;;;;5011946;28;20135;-72
2023/11/19 03:21:10;;;;;;;4.47;4.07;;;10.90;99.90;;;;;;5026645;28;20138;-74
2023/11/19 03:23:37;;;;;;;4.22;3.70;;;11.00;99.90;;;;;;5032416;28;20450;-75
2023/11/19 03:26:05;;;;;;;5.18;4.30;;;10.90;99.90;;;;;;5011785;28;20096;-73
2023/11/19 03:28:32;;;;;;;5.97;3.85;;;10.90;99.90;;;;;;5047128;28;20038;-72
2023/11/19 03:30:59;;;;;;;6.50;4.80;;;10.90;99.90;;;;;;5035204;28;20033;-73
2023/11/19 03:33:27;;;;;;;7.25;4.63;;;10.90;99.90;;;;;;5006956;28;20157;-72
2023/11/19 03:35:56;;;;;;;8.02;4.25;;;10.90;99.90;;;;;;5010439;28;20125;-73
2023/11/19 03:38:24;;;;;;;8.20;4.15;;;10.90;99.90;;;;;;5009115;28;20075;-73
2023/11/19 03:40:51;;;;;;;7.00;4.35;;;11.00;99.90;;;;;;5048213;28;20067;-73
2023/11/19 03:43:21;;;;;;;5.13;3.80;;;11.00;99.90;;;;;;5032762;28;20048;-73
2023/11/19 03:45:48;;;;;;;4.40;3.83;;;11.00;99.90;;;;;;5027202;28;20507;-73
2023/11/19 03:48:18;;;;;;;9.30;5.28;;;11.10;99.90;;;;;;5015734;28;20049;-73
2023/11/19 03:50:45;;;;;;;4.93;3.40;;;11.10;99.90;;;;;;5014359;28;20057;-73
2023/11/19 03:53:12;;;;;;;5.25;3.88;;;11.10;99.90;;;;;;5049322;28;20075;-73
2023/11/19 03:55:39;;;;;;;6.85;4.60;;;11.10;99.90;;;;;;5007552;28;21528;-72
2023/11/19 03:58:06;;;;;;;6.30;3.88;;;11.10;99.90;;;;;;5033465;28;20103;-73
2023/11/19 04:00:33;;;;;;;8.60;4.53;;;11.10;99.90;;;;;;5019786;28;20041;-78
2023/11/19 04:03:00;;;;;;;9.73;4.00;;;11.20;99.90;;;;;;5029788;28;20049;-72
2023/11/19 04:05:27;;;;;;;13.18;4.32;;;11.20;99.90;;;;;;5006757;28;20045;-72
2023/11/19 04:07:54;;;;;;;7.68;4.15;;;11.20;99.90;;;;;;5029583;28;20095;-72
2023/11/19 04:10:22;;;;;;;12.15;4.03;;;11.20;99.90;;;;;;5008296;28;20057;-71
2023/11/19 04:12:49;;;;;;;10.13;4.15;;;11.20;99.90;;;;;;5028226;28;20495;-71
2023/11/19 04:15:16;;;;;;;15.27;4.72;;;11.20;99.90;;;;;;5026473;28;20056;-72
2023/11/19 04:17:42;;;;;;;23.25;5.35;;;11.20;99.90;;;;;;5025626;28;22418;-72
2023/11/19 04:20:13;;;;;;;12.65;5.90;;;11.30;99.90;;;;;;5025774;28;20106;-71
2023/11/19 04:22:40;;;;;;;7.57;5.35;;;11.30;99.90;;;;;;5027892;28;20474;-72
2023/11/19 04:25:08;;;;;;;8.35;5.05;;;11.30;99.90;;;;;;5026113;28;20037;-71
2023/11/19 04:27:35;;;;;;;10.70;7.03;;;11.30;99.90;;;;;;5029628;28;20049;-71
2023/11/19 04:30:03;;;;;;;15.18;5.82;;;11.30;99.90;;;;;;5025027;28;20370;-72
2023/11/19 04:32:30;;;;;;;9.15;5.18;;;11.30;99.90;;;;;;5022056;28;20037;-71
2023/11/19 04:34:57;;;;;;;11.95;5.97;;;11.30;99.90;;;;;;5025219;28;20065;-71
2023/11/19 04:37:24;;;;;;;12.07;5.75;;;11.30;99.90;;;;;;5017951;28;20048;-71
2023/11/19 04:39:51;;;;;;;7.30;5.28;;;11.30;99.90;;;;;;5031152;28;20725;-71
2023/11/19 04:42:18;;;;;;;18.42;6.25;;;11.30;99.90;;;;;;5013216;28;20084;-71
2023/11/19 04:44:45;;;;;;;19.02;5.97;;;11.30;99.90;;;;;;5005335;28;20590;-72
2023/11/19 04:47:11;;;;;;;8.93;5.15;;;11.30;99.90;;;;;;5022076;28;20611;-71
2023/11/19 04:49:45;;;;;;;12.00;5.70;;;11.30;99.90;;;;;;5004706;28;20037;-71
2023/11/19 04:52:12;;;;;;;11.43;5.10;;;11.40;99.90;;;;;;5027259;28;20061;-71
2023/11/19 04:54:43;;;;;;;12.40;5.18;;;11.40;99.90;;;;;;5022713;28;20049;-72
2023/11/19 04:57:11;;;;;;;13.90;6.05;;;11.40;99.90;;;;;;5024918;28;20131;-71
2023/11/19 04:59:38;;;;;;;18.13;6.57;;;11.50;99.90;;;;;;5024497;28;20036;-72
2023/11/19 05:02:05;;;;;;;19.10;6.55;;;11.50;99.90;;;;;;5029393;28;20049;-72
2023/11/19 05:04:32;;;;;;;16.75;6.32;;;11.40;99.90;;;;;;5024515;28;20535;-71
2023/11/19 05:06:59;;;;;;;18.20;6.28;;;11.50;99.90;;;;;;5032911;28;20098;-71
2023/11/19 05:09:25;;;;;;;9.00;5.50;;;11.40;99.90;;;;;;5023631;28;20135;-70
2023/11/19 05:11:52;;;;;;;16.52;6.43;;;11.40;99.90;;;;;;5024620;28;20045;-71
2023/11/19 05:14:20;;;;;;;11.23;4.95;;;11.40;99.90;;;;;;5026005;28;20057;-71
2023/11/19 05:16:47;;;;;;;14.27;5.45;;;11.40;99.90;;;;;;5020802;28;20041;-72
2023/11/19 05:19:14;;;;;;;11.40;5.18;;;11.40;99.90;;;;;;5029201;28;20060;-72
2023/11/19 05:21:44;;;;;;;13.10;5.15;;;11.40;99.90;;;;;;5029893;28;20121;-71
2023/11/19 05:24:14;;;;;;;15.82;6.03;;;11.50;99.90;;;;;;5045799;28;20076;-72
2023/11/19 05:26:41;;;;;;;17.33;5.35;;;11.50;99.90;;;;;;5024082;28;20132;-71
2023/11/19 05:29:07;;;;;;;18.60;6.20;;;11.50;99.90;;;;;;5027556;28;20511;-72
2023/11/19 05:31:34;;;;;;;22.67;5.97;;;11.50;99.90;;;;;;5025403;28;20048;-71
2023/11/19 05:34:03;;;;;;;16.98;4.88;;;11.40;99.90;;;;;;5025188;28;20045;-70
2023/11/19 05:36:30;;;;;;;14.57;4.97;;;11.40;99.90;;;;;;5021091;28;20747;-70
2023/11/19 05:38:57;;;;;;;26.55;5.75;;;11.40;99.90;;;;;;5032263;28;20037;-70
2023/11/19 05:41:24;;;;;;;22.40;7.05;;;11.40;99.90;;;;;;5008047;28;20045;-71
2023/11/19 05:43:51;;;;;;;24.08;6.72;;;11.40;99.90;;;;;;5026126;28;20044;-72
2023/11/19 05:46:18;;;;;;;21.77;5.70;;;11.40;99.90;;;;;;5027775;28;20036;-71
2023/11/19 05:48:47;;;;;;;16.67;6.50;;;11.30;99.90;;;;;;5027571;28;20061;-71
2023/11/19 05:51:15;;;;;;;22.85;6.95;;;11.30;99.90;;;;;;5027995;28;20045;-71
2023/11/19 05:53:42;;;;;;;15.27;5.07;;;11.20;99.90;;;;;;5026019;28;20682;-72
2023/11/19 05:56:09;;;;;;;21.90;6.15;;;11.10;99.90;;;;;;5027016;28;20743;-72
2023/11/19 05:58:40;;;;;;;21.92;6.70;;;11.10;99.90;;;;;;5024932;28;20064;-72
2023/11/19 06:01:07;;;;;;;34.92;8.13;;;11.10;99.90;;;;;;5031728;28;20049;-71
2023/11/19 06:03:35;;;;;;;24.23;6.97;;;11.10;99.90;;;;;;5027162;28;20182;-71
2023/11/19 06:06:02;;;;;;;25.40;7.68;;;11.00;99.90;;;;;;5025163;28;20048;-71
2023/11/19 06:08:30;;;;;;;23.70;7.13;;;11.00;99.90;;;;;;5008491;28;20049;-74
2023/11/19 06:10:57;;;;;;;22.13;7.70;;;10.90;99.90;;;;;;5035808;28;20071;-71
2023/11/19 06:13:25;;;;;;;24.23;7.97;;;11.00;99.90;;;;;;5033226;28;20048;-73
2023/11/19 06:15:52;;;;;;;17.67;7.80;;;10.90;99.90;;;;;;5012501;28;20654;-72
2023/11/19 06:18:19;;;;;;;30.15;8.68;;;10.90;99.90;;;;;;5006897;28;20049;-72
2023/11/19 06:20:47;;;;;;;27.52;9.02;;;10.90;99.90;;;;;;5031801;28;20049;-70
2023/11/19 06:23:14;;;;;;;29.33;10.02;;;10.90;99.90;;;;;;5032146;28;20112;-72
2023/11/19 06:25:41;;;;;;;21.63;7.90;;;10.90;99.90;;;;;;5028041;28;20140;-72
2023/11/19 06:28:08;;;;;;;28.35;8.35;;;10.90;99.90;;;;;;5028146;28;20056;-72
2023/11/19 06:30:36;;;;;;;27.38;8.55;;;10.90;99.90;;;;;;5028242;28;20519;-71
2023/11/19 06:33:03;;;;;;;29.52;9.32;;;10.90;99.90;;;;;;5029767;28;20096;-71
2023/11/19 06:35:35;;;;;;;22.52;8.48;;;10.90;99.90;;;;;;5035495;28;20049;-71
2023/11/19 06:38:04;;;;;;;27.90;8.85;;;10.90;99.90;;;;;;5032016;28;20095;-71
2023/11/19 06:40:32;;;;;;;35.00;11.68;;;10.90;99.90;;;;;;5025364;28;20079;-71
2023/11/19 06:43:00;;;;;;;30.48;10.63;;;10.90;99.90;;;;;;5028162;28;20068;-72
2023/11/19 06:45:27;;;;;;;28.08;8.68;;;10.90;99.90;;;;;;5031869;28;20041;-71
2023/11/19 06:47:56;;;;;;;28.25;9.93;;;11.00;99.90;;;;;;5032542;28;20696;-72
2023/11/19 06:50:23;;;;;;;45.22;9.27;;;10.90;99.90;;;;;;5014102;28;20037;-72
2023/11/19 06:52:50;;;;;;;22.85;8.27;;;10.90;99.90;;;;;;5034178;28;20446;-72
2023/11/19 06:55:17;;;;;;;26.33;8.00;;;10.90;99.90;;;;;;5025315;28;20128;-71
2023/11/19 06:57:43;;;;;;;33.60;9.65;;;10.90;99.90;;;;;;5019366;28;20095;-71
2023/11/19 07:00:11;;;;;;;26.30;8.63;;;10.80;99.90;;;;;;5029003;28;20045;-71
2023/11/19 07:02:39;;;;;;;28.17;9.52;;;10.80;99.90;;;;;;5032086;28;20128;-72
2023/11/19 07:05:08;;;;;;;44.15;9.95;;;10.80;99.90;;;;;;5035019;28;20699;-71
2023/11/19 07:07:35;;;;;;;36.05;11.90;;;10.80;99.90;;;;;;5031908;28;20427;-72
2023/11/19 07:10:04;;;;;;;31.88;10.43;;;10.70;99.90;;;;;;5033511;28;20567;-72
2023/11/19 07:12:31;;;;;;;29.45;8.85;;;10.70;99.90;;;;;;5026070;28;20075;-72
2023/11/19 07:14:57;;;;;;;40.13;8.82;;;10.70;99.90;;;;;;5032077;28;20033;-72
2023/11/19 07:17:24;;;;;;;27.15;7.75;;;10.70;99.90;;;;;;5029886;28;20065;-72
2023/11/19 07:19:51;;;;;;;29.13;8.35;;;10.70;99.90;;;;;;5030201;28;20056;-72
2023/11/19 07:22:18;;;;;;;34.80;9.25;;;10.70;99.90;;;;;;5029321;28;20037;-71
2023/11/19 07:24:45;;;;;;;35.88;10.98;;;10.70;99.90;;;;;;5029214;28;20056;-72
2023/11/19 07:27:12;;;;;;;32.25;8.80;;;10.70;99.90;;;;;;5031228;28;20041;-71
2023/11/19 07:29:39;;;;;;;43.03;9.65;;;10.70;99.90;;;;;;5020295;28;20041;-73
2023/11/19 07:32:06;;;;;;;35.78;8.48;;;10.80;99.90;;;;;;5027507;28;20033;-71
2023/11/19 07:34:35;;;;;;;38.88;8.93;;;10.80;99.90;;;;;;5023059;28;20577;-71
2023/11/19 07:37:02;;;;;;;27.55;9.90;;;10.80;99.90;;;;;;5029948;28;20037;-72
2023/11/19 07:39:29;;;;;;;28.33;9.00;;;10.80;99.90;;;;;;5011632;28;20061;-71
2023/11/19 07:41:56;;;;;;;34.20;10.98;;;10.80;99.90;;;;;;5025809;28;20042;-72
2023/11/19 07:44:24;;;;;;;31.30;9.98;;;10.80;99.90;;;;;;5014088;28;20076;-71
2023/11/19 07:46:51;;;;;;;30.48;9.27;;;10.80;99.90;;;;;;5025507;28;20473;-72
2023/11/19 07:49:18;;;;;;;35.85;11.77;;;10.80;99.90;;;;;;5024259;28;20048;-72
2023/11/19 07:51:45;;;;;;;31.85;12.73;;;10.80;99.90;;;;;;5029336;28;20049;-72
2023/11/19 07:54:13;;;;;;;36.67;13.60;;;10.70;99.90;;;;;;5015410;28;20045;-72
2023/11/19 07:56:41;;;;;;;33.08;13.95;;;10.80;99.90;;;;;;5028260;28;20110;-73
2023/11/19 07:59:11;;;;;;;36.22;14.32;;;10.80;99.90;;;;;;5033813;28;20506;-72
2023/11/19 08:01:38;;;;;;;39.95;14.02;;;10.80;99.90;;;;;;5026143;28;20740;-72
2023/11/19 08:04:07;;;;;;;36.65;13.35;;;10.80;99.90;;;;;;5026534;28;20076;-72
2023/11/19 08:06:35;;;;;;;42.90;16.15;;;10.80;99.90;;;;;;5026815;28;20037;-73
2023/11/19 08:09:02;;;;;;;45.20;15.65;;;10.80;99.90;;;;;;5027463;28;20055;-72
2023/11/19 08:11:28;;;;;;;37.53;16.77;;;10.90;99.90;;;;;;5032681;28;20048;-73
2023/11/19 08:13:55;;;;;;;40.75;15.27;;;11.00;99.90;;;;;;5030235;28;20044;-73
2023/11/19 08:16:22;;;;;;;33.78;16.83;;;11.10;99.90;;;;;;5024694;28;20134;-72
2023/11/19 08:18:49;;;;;;;36.50;17.50;;;11.20;99.90;;;;;;5030448;28;20099;-72
2023/11/19 08:21:15;;;;;;;30.10;19.55;;;11.30;99.90;;;;;;5010358;28;20043;-73
2023/11/19 08:23:42;;;;;;;44.03;17.85;;;11.30;99.90;;;;;;5026790;28;20061;-72
2023/11/19 08:26:09;;;;;;;30.15;17.30;;;11.30;99.90;;;;;;5027240;28;20044;-73
2023/11/19 08:28:37;;;;;;;32.60;19.33;;;11.30;99.90;;;;;;5031978;28;20595;-72
2023/11/19 08:31:05;;;;;;;34.08;19.83;;;11.20;99.90;;;;;;5027141;28;20048;-73
2023/11/19 08:33:32;;;;;;;40.03;17.33;;;11.10;99.90;;;;;;5015296;28;20059;-73
2023/11/19 08:36:00;;;;;;;43.67;17.23;;;11.00;99.90;;;;;;5028845;28;20049;-73
2023/11/19 08:38:27;;;;;;;43.38;17.02;;;11.00;99.90;;;;;;5026034;28;20228;-73
2023/11/19 08:41:00;;;;;;;40.85;16.77;;;11.00;99.90;;;;;;5028792;28;20511;-73
2023/11/19 08:43:27;;;;;;;31.58;16.67;;;10.90;99.90;;;;;;5014685;28;20138;-73
2023/11/19 08:45:55;;;;;;;41.28;19.77;;;10.90;99.90;;;;;;5009096;28;20891;-74
2023/11/19 08:48:21;;;;;;;37.60;20.88;;;10.90;99.90;;;;;;5030503;28;20464;-73
2023/11/19 08:50:48;;;;;;;26.25;16.65;;;11.00;99.90;;;;;;5027155;28;20057;-75
2023/11/19 08:53:15;;;;;;;36.88;18.80;;;11.00;99.90;;;;;;5011698;28;20048;-74
2023/11/19 08:55:46;;;;;;;30.33;16.67;;;11.00;99.90;;;;;;5023358;28;20204;-75
2023/11/19 08:58:12;;;;;;;35.38;19.58;;;11.20;99.90;;;;;;5025172;28;20069;-73
2023/11/19 09:00:40;;;;;;;35.22;19.80;;;11.20;99.90;;;;;;5023552;28;20041;-73
2023/11/19 09:03:07;;;;;;;30.10;21.00;;;11.20;99.90;;;;;;5025589;28;20037;-72
2023/11/19 09:05:33;;;;;;;35.25;20.55;;;11.30;99.90;;;;;;5026805;28;20052;-72
2023/11/19 09:08:00;;;;;;;30.05;19.85;;;11.30;99.90;;;;;;5029416;28;20082;-75
2023/11/19 09:10:29;;;;;;;40.35;21.67;;;11.40;99.90;;;;;;5030096;28;20079;-73
2023/11/19 09:12:56;;;;;;;29.75;22.52;;;11.50;99.90;;;;;;5004740;28;20083;-73
2023/11/19 09:15:24;;;;;;;40.72;22.65;;;11.60;99.90;;;;;;5024591;28;20068;-72
2023/11/19 09:17:51;;;;;;;35.63;21.58;;;11.50;99.90;;;;;;5037371;28;20045;-73
2023/11/19 09:20:18;;;;;;;38.08;22.40;;;11.60;99.90;;;;;;5024536;28;20044;-72
2023/11/19 09:22:45;;;;;;;34.45;23.13;;;11.60;99.90;;;;;;5020523;28;20419;-72
2023/11/19 09:25:16;;;;;;;41.42;25.67;;;11.60;99.90;;;;;;5022468;28;20615;-73
2023/11/19 09:27:44;;;;;;;34.08;24.08;;;11.60;99.90;;;;;;5021313;28;20049;-73
2023/11/19 09:30:11;;;;;;;37.70;24.02;;;11.50;99.90;;;;;;5010076;28;20150;-72
2023/11/19 09:32:38;;;;;;;37.28;26.48;;;11.50;99.90;;;;;;5026537;28;20047;-72
2023/11/19 09:35:06;;;;;;;36.55;25.27;;;11.60;99.90;;;;;;5025233;28;20076;-73
2023/11/19 09:37:34;;;;;;;35.35;24.15;;;11.60;99.90;;;;;;5029476;28;20037;-73
2023/11/19 09:40:00;;;;;;;26.95;22.38;;;11.50;99.90;;;;;;5025367;28;21681;-72
2023/11/19 09:42:27;;;;;;;33.55;24.58;;;11.50;99.90;;;;;;5026587;28;20645;-72
2023/11/19 09:44:56;;;;;;;34.53;23.90;;;11.50;99.90;;;;;;5019138;28;20068;-73
2023/11/19 09:47:24;;;;;;;39.80;24.73;;;11.60;99.90;;;;;;5025094;28;20061;-72
2023/11/19 09:49:52;;;;;;;38.33;25.77;;;11.60;99.90;;;;;;5026047;28;20049;-73
2023/11/19 09:52:19;;;;;;;35.15;25.83;;;11.60;99.90;;;;;;5011510;28;20049;-72
2023/11/19 09:54:46;;;;;;;48.55;25.83;;;11.70;99.90;;;;;;5022188;28;20053;-73
2023/11/19 09:57:15;;;;;;;42.30;26.35;;;11.80;99.90;;;;;;5024765;28;20036;-72
2023/11/19 09:59:45;;;;;;;41.30;23.77;;;11.80;99.90;;;;;;5025675;28;20495;-72
2023/11/19 10:02:13;;;;;;;31.98;26.38;;;11.70;99.90;;;;;;5025361;28;20038;-73
2023/11/19 10:04:43;;;;;;;36.30;22.55;;;11.50;99.90;;;;;;5027453;28;20033;-71
2023/11/19 10:07:10;;;;;;;41.38;21.10;;;11.20;99.90;;;;;;5023363;28;20045;-73
2023/11/19 10:09:37;;;;;;;52.05;17.50;;;11.00;99.90;;;;;;5045061;28;20041;-73
2023/11/19 10:12:05;;;;;;;31.25;14.98;;;10.90;99.90;;;;;;5012548;28;20145;-72
2023/11/19 10:14:36;;;;;;;36.45;15.50;;;10.80;99.90;;;;;;5027711;28;20049;-72
2023/11/19 10:17:04;;;;;;;38.63;17.23;;;10.70;99.90;;;;;;5021212;28;20040;-73
2023/11/19 10:19:39;;;;;;;44.30;17.10;;;10.70;99.90;;;;;;5008678;28;20435;-73
2023/11/19 10:22:06;;;;;;;41.08;16.25;;;10.70;99.90;;;;;;5028847;28;20684;-74
2023/11/19 10:24:38;;;;;;;41.88;14.63;;;10.60;99.90;;;;;;5025884;28;20095;-73
2023/11/19 10:27:09;;;;;;;42.15;14.52;;;10.60;99.90;;;;;;5008287;28;20087;-72
2023/11/19 10:29:37;;;;;;;44.22;13.30;;;10.60;99.90;;;;;;5030520;28;20112;-73
2023/11/19 10:32:05;;;;;;;28.70;11.48;;;10.60;99.90;;;;;;5024318;28;20052;-73
2023/11/19 10:34:51;;;;;;;35.05;13.68;;;10.70;99.90;;;;;;5022724;28;20068;-74
2023/11/19 10:37:32;;;;;;;39.60;15.13;;;11.00;99.90;;;;;;5025216;28;20057;-73
2023/11/19 10:39:59;;;;;;;39.45;16.58;;;11.20;99.90;;;;;;5023623;28;20084;-73
2023/11/19 10:42:26;;;;;;;48.13;17.75;;;11.30;99.90;;;;;;5010829;28;20072;-73
2023/11/19 10:44:53;;;;;;;33.75;15.25;;;11.40;99.90;;;;;;5019741;28;20045;-73
2023/11/19 10:47:23;;;;;;;31.95;15.18;;;11.50;99.90;;;;;;5024537;28;20592;-73
2023/11/19 10:49:53;;;;;;;28.63;17.15;;;11.80;99.90;;;;;;5021938;28;20079;-73
2023/11/19 10:52:20;;;;;;;30.95;18.83;;;11.80;99.90;;;;;;5029760;28;20057;-73
2023/11/19 10:54:51;;;;;;;36.75;19.83;;;11.90;99.90;;;;;;5003780;28;20073;-73
2023/11/19 10:57:24;;;;;;;34.72;19.77;;;12.10;99.90;;;;;;5045395;28;20144;-73
2023/11/19 10:59:59;;;;;;;38.65;20.35;;;12.10;99.90;;;;;;5022147;28;20048;-72
2023/11/19 11:02:28;;;;;;;35.80;19.75;;;12.20;99.90;;;;;;5046291;28;20439;-73
2023/11/19 11:04:56;;;;;;;38.30;19.30;;;12.30;99.90;;;;;;5019928;28;20064;-73
2023/11/19 11:07:25;;;;;;;39.55;23.92;;;12.30;99.90;;;;;;5025001;28;20167;-71
2023/11/19 11:10:07;;;;;;;37.92;21.95;;;12.40;99.90;;;;;;5004121;28;20071;-73
2023/11/19 11:12:39;;;;;;;39.67;23.60;;;12.30;99.90;;;;;;5027596;28;20052;-72
2023/11/19 11:15:08;;;;;;;39.60;23.50;;;12.30;99.90;;;;;;5038498;28;20063;-72
2023/11/19 11:17:38;;;;;;;40.30;23.70;;;12.10;99.90;;;;;;5008280;28;20045;-72
2023/11/19 11:20:08;;;;;;;41.17;22.88;;;12.00;99.90;;;;;;5027319;28;20055;-72
2023/11/19 11:23:01;;;;;;;43.53;22.17;;;12.00;99.90;;;;;;5021219;28;20541;-72
2023/11/19 11:25:42;;;;;;;49.05;24.10;;;12.00;99.90;;;;;;5035587;28;20533;-73
2023/11/19 11:28:33;;;;;;;38.70;24.33;;;11.90;99.90;;;;;;5023895;28;20092;-72
2023/11/19 11:31:29;;;;;;;33.88;23.23;;;11.80;99.90;;;;;;5033083;28;20056;-74
2023/11/19 11:34:19;;;;;;;35.95;23.30;;;11.60;99.90;;;;;;5033118;28;20509;-73
2023/11/19 11:36:58;;;;;;;29.60;21.10;;;11.50;99.90;;;;;;5030208;28;20049;-72
2023/11/19 11:39:29;;;;;;;42.83;19.92;;;11.40;99.90;;;;;;5036364;28;20069;-73
2023/11/19 11:42:25;;;;;;;27.92;21.20;;;11.40;99.90;;;;;;5037524;28;20045;-72
2023/11/19 11:44:58;;;;;;;34.75;21.98;;;11.40;99.90;;;;;;5050339;28;20072;-73
2023/11/19 11:47:47;;;;;;;;;;;11.40;99.90;;;;;;5021123;28;20037;-73
2023/11/19 11:50:18;;;;;;;43.83;21.77;;;11.50;99.90;;;;;;5020908;28;20008;-72
2023/11/19 11:52:58;;;;;;;37.85;22.92;;;11.40;99.90;;;;;;5038347;28;20049;-72
2023/11/19 11:55:37;;;;;;;42.25;19.98;;;11.50;99.90;;;;;;5033625;28;20049;-73
2023/11/19 11:58:05;;;;;;;41.90;19.63;;;11.40;99.90;;;;;;5033080;28;20059;-73
2023/11/19 12:00:37;;;;;;;36.70;21.52;;;11.40;99.90;;;;;;5040220;28;20048;-73
2023/11/19 12:03:09;;;;;;;34.42;19.80;;;11.40;99.90;;;;;;5037981;28;20102;-73
2023/11/19 12:05:42;;;;;;;31.67;16.90;;;11.10;99.90;;;;;;5035471;28;20049;-73
2023/11/19 12:08:15;;;;;;;46.65;20.40;;;11.10;99.90;;;;;;5016270;28;20090;-73
2023/11/19 12:10:49;;;;;;;40.58;20.98;;;11.00;99.90;;;;;;5038814;28;20049;-73
2023/11/19 12:13:18;;;;;;;42.47;16.55;;;10.90;99.90;;;;;;5032568;28;20512;-72
2023/11/19 12:15:58;;;;;;;37.85;15.60;;;10.80;99.90;;;;;;5026513;28;20729;-72
2023/11/19 12:18:30;;;;;;;37.95;13.70;;;10.60;99.90;;;;;;5016798;28;20055;-73
2023/11/19 12:21:02;;;;;;;43.55;11.90;;;10.60;99.90;;;;;;5028258;28;20132;-74
2023/11/19 12:23:30;;;;;;;38.95;10.90;;;10.40;99.90;;;;;;5013020;28;20056;-74
2023/11/19 12:25:58;;;;;;;34.67;9.95;;;10.30;99.90;;;;;;5006374;28;20357;-74
2023/11/19 12:28:27;;;;;;;35.83;9.77;;;10.20;99.90;;;;;;5029397;28;20040;-73
2023/11/19 12:31:09;;;;;;;32.33;9.73;;;10.20;99.90;;;;;;5026120;28;20041;-73
2023/11/19 12:33:37;;;;;;;36.58;9.52;;;10.20;99.90;;;;;;5021339;28;20037;-72
2023/11/19 12:36:05;;;;;;;34.45;10.35;;;10.20;99.90;;;;;;5028485;28;20095;-72
2023/11/19 12:38:32;;;;;;;32.10;9.30;;;10.30;99.90;;;;;;5031377;28;20095;-73
2023/11/19 12:41:08;;;;;;;34.20;10.48;;;10.30;99.90;;;;;;5026980;28;20653;-74
2023/11/19 12:43:36;;;;;;;36.72;10.23;;;10.30;99.90;;;;;;5032160;28;20042;-74
2023/11/19 12:46:19;;;;;;;36.45;10.00;;;10.30;99.90;;;;;;5030185;28;20153;-73